sensor_id;sensor_type;location;lat;lon;timestamp;pressure;altitude;pressure_sealevel;temperature;humidity
2268;BME280;11052;43.338;25.502;2022-10-16T00:01:05;101451.31;;;5.44;100.00
2268;BME280;11052;43.338;25.502;2022-10-16T00:03:34;101451.97;;;5.26;100.00
2268;BME280;11052;43.338;25.502;2022-10-16T00:06:02;101452.00;;;5.28;100.00
2268;BME280;11052;43.338;25.502;2022-10-16T00:08:30;101454.50;;;5.20;100.00
2268;BME280;11052;43.338;25.502;2022-10-16T00:11:02;101455.22;;;5.06;100.00
2268;BME280;11052;43.338;25.502;2022-10-16T00:13:30;101455.31;;;5.13;100.00
2268;BME280;11052;43.338;25.502;2022-10-16T00:15:58;101453.47;;;5.03;100.00
2268;BME280;11052;43.338;25.502;2022-10-16T00:18:27;101456.13;;;5.11;100.00
2268;BME280;11052;43.338;25.502;2022-10-16T00:21:01;101468.94;;;5.06;100.00
2268;BME280;11052;43.338;25.502;2022-10-16T00:23:28;101468.13;;;5.10;100.00
2268;BME280;11052;43.338;25.502;2022-10-16T00:25:56;101462.16;;;5.13;100.00
2268;BME280;11052;43.338;25.502;2022-10-16T00:28:24;101469.88;;;5.14;100.00
2268;BME280;11052;43.338;25.502;2022-10-16T00:30:51;101475.00;;;5.13;100.00
2268;BME280;11052;43.338;25.502;2022-10-16T00:33:18;101470.66;;;5.09;100.00
2268;BME280;11052;43.338;25.502;2022-10-16T00:35:46;101480.91;;;5.04;100.00
2268;BME280;11052;43.338;25.502;2022-10-16T00:38:14;101478.31;;;5.03;100.00
2268;BME280;11052;43.338;25.502;2022-10-16T00:40:41;101483.38;;;4.97;100.00
2268;BME280;11052;43.338;25.502;2022-10-16T00:43:13;101485.03;;;4.93;100.00
2268;BME280;11052;43.338;25.502;2022-10-16T00:45:41;101493.63;;;4.93;100.00
2268;BME280;11052;43.338;25.502;2022-10-16T00:48:12;101489.31;;;4.92;100.00
2268;BME280;11052;43.338;25.502;2022-10-16T00:50:40;101483.31;;;4.92;100.00
2268;BME280;11052;43.338;25.502;2022-10-16T00:53:10;101480.78;;;4.93;100.00
2268;BME280;11052;43.338;25.502;2022-10-16T00:55:40;101481.53;;;4.86;100.00
2268;BME280;11052;43.338;25.502;2022-10-16T00:58:07;101484.00;;;4.77;100.00
2268;BME280;11052;43.338;25.502;2022-10-16T01:00:34;101485.75;;;4.80;100.00
2268;BME280;11052;43.338;25.502;2022-10-16T01:03:02;101491.78;;;4.83;100.00
2268;BME280;11052;43.338;25.502;2022-10-16T01:05:34;101490.00;;;4.79;100.00
2268;BME280;11052;43.338;25.502;2022-10-16T01:08:10;101484.78;;;4.73;100.00
2268;BME280;11052;43.338;25.502;2022-10-16T01:10:46;101484.88;;;4.79;100.00
2268;BME280;11052;43.338;25.502;2022-10-16T01:13:19;101492.53;;;4.75;100.00
2268;BME280;11052;43.338;25.502;2022-10-16T01:15:52;101495.06;;;4.72;100.00
2268;BME280;11052;43.338;25.502;2022-10-16T01:18:28;101500.88;;;4.60;100.00
2268;BME280;11052;43.338;25.502;2022-10-16T01:21:01;101492.34;;;4.61;100.00
2268;BME280;11052;43.338;25.502;2022-10-16T01:23:37;101494.09;;;4.64;100.00
2268;BME280;11052;43.338;25.502;2022-10-16T01:26:31;101506.94;;;4.65;100.00
2268;BME280;11052;43.338;25.502;2022-10-16T01:29:09;101504.22;;;4.54;100.00
2268;BME280;11052;43.338;25.502;2022-10-16T01:31:45;101507.69;;;4.56;100.00
2268;BME280;11052;43.338;25.502;2022-10-16T01:34:16;101503.44;;;4.58;100.00
2268;BME280;11052;43.338;25.502;2022-10-16T01:36:50;101501.69;;;4.56;100.00
2268;BME280;11052;43.338;25.502;2022-10-16T01:39:21;101503.31;;;4.51;100.00
2268;BME280;11052;43.338;25.502;2022-10-16T01:41:54;101505.97;;;4.57;100.00
2268;BME280;11052;43.338;25.502;2022-10-16T01:44:26;101504.06;;;4.44;100.00
2268;BME280;11052;43.338;25.502;2022-10-16T01:46:56;101510.00;;;4.40;100.00
2268;BME280;11052;43.338;25.502;2022-10-16T01:49:25;101506.50;;;4.32;100.00
2268;BME280;11052;43.338;25.502;2022-10-16T01:51:56;101503.94;;;4.35;100.00
2268;BME280;11052;43.338;25.502;2022-10-16T01:54:25;101509.97;;;4.37;100.00
2268;BME280;11052;43.338;25.502;2022-10-16T01:56:55;101512.50;;;4.35;100.00
2268;BME280;11052;43.338;25.502;2022-10-16T01:59:26;101511.59;;;4.28;100.00
2268;BME280;11052;43.338;25.502;2022-10-16T02:01:56;101512.47;;;4.31;100.00
2268;BME280;11052;43.338;25.502;2022-10-16T02:04:29;101513.16;;;4.20;100.00
2268;BME280;11052;43.338;25.502;2022-10-16T02:06:57;101514.84;;;4.18;100.00
2268;BME280;11052;43.338;25.502;2022-10-16T02:09:24;101522.63;;;4.24;100.00
2268;BME280;11052;43.338;25.502;2022-10-16T02:11:53;101520.78;;;4.16;100.00
2268;BME280;11052;43.338;25.502;2022-10-16T02:14:22;101526.84;;;4.19;100.00
2268;BME280;11052;43.338;25.502;2022-10-16T02:16:52;101520.91;;;4.23;100.00
2268;BME280;11052;43.338;25.502;2022-10-16T02:19:21;101518.13;;;4.10;100.00
2268;BME280;11052;43.338;25.502;2022-10-16T02:21:51;101530.06;;;4.08;100.00
2268;BME280;11052;43.338;25.502;2022-10-16T02:24:23;101519.72;;;4.03;100.00
2268;BME280;11052;43.338;25.502;2022-10-16T02:26:58;101523.22;;;4.08;100.00
2268;BME280;11052;43.338;25.502;2022-10-16T02:29:27;101526.53;;;4.01;100.00
2268;BME280;11052;43.338;25.502;2022-10-16T02:31:58;101526.50;;;3.98;100.00
2268;BME280;11052;43.338;25.502;2022-10-16T02:34:30;101528.13;;;3.93;100.00
2268;BME280;11052;43.338;25.502;2022-10-16T02:37:01;101541.78;;;3.92;100.00
2268;BME280;11052;43.338;25.502;2022-10-16T02:39:30;101534.09;;;3.93;100.00
2268;BME280;11052;43.338;25.502;2022-10-16T02:41:58;101545.09;;;3.86;100.00
2268;BME280;11052;43.338;25.502;2022-10-16T02:44:25;101547.63;;;3.85;100.00
2268;BME280;11052;43.338;25.502;2022-10-16T02:46:52;101544.31;;;3.90;100.00
2268;BME280;11052;43.338;25.502;2022-10-16T02:49:20;101548.59;;;3.90;100.00
2268;BME280;11052;43.338;25.502;2022-10-16T02:51:48;101545.88;;;3.82;100.00
2268;BME280;11052;43.338;25.502;2022-10-16T02:54:15;101552.69;;;3.80;100.00
2268;BME280;11052;43.338;25.502;2022-10-16T02:56:42;101549.22;;;3.78;100.00
2268;BME280;11052;43.338;25.502;2022-10-16T02:59:09;101550.03;;;3.76;100.00
2268;BME280;11052;43.338;25.502;2022-10-16T03:01:36;101553.31;;;3.67;100.00
2268;BME280;11052;43.338;25.502;2022-10-16T03:04:03;101555.00;;;3.67;100.00
2268;BME280;11052;43.338;25.502;2022-10-16T03:06:32;101549.69;;;3.57;100.00
2268;BME280;11052;43.338;25.502;2022-10-16T03:08:59;101550.56;;;3.58;100.00
2268;BME280;11052;43.338;25.502;2022-10-16T03:11:26;101559.88;;;3.53;100.00
2268;BME280;11052;43.338;25.502;2022-10-16T03:13:53;101570.13;;;3.53;100.00
2268;BME280;11052;43.338;25.502;2022-10-16T03:16:20;101564.19;;;3.55;100.00
2268;BME280;11052;43.338;25.502;2022-10-16T03:18:48;101572.88;;;3.62;100.00
2268;BME280;11052;43.338;25.502;2022-10-16T03:21:16;101571.63;;;3.40;100.00
2268;BME280;11052;43.338;25.502;2022-10-16T03:23:44;101578.91;;;3.20;100.00
2268;BME280;11052;43.338;25.502;2022-10-16T03:26:12;101585.88;;;3.27;100.00
2268;BME280;11052;43.338;25.502;2022-10-16T03:28:39;101577.47;;;3.33;100.00
2268;BME280;11052;43.338;25.502;2022-10-16T03:31:06;101577.38;;;3.30;100.00
2268;BME280;11052;43.338;25.502;2022-10-16T03:33:33;101582.63;;;3.36;100.00
2268;BME280;11052;43.338;25.502;2022-10-16T03:36:00;101581.88;;;3.40;100.00
2268;BME280;11052;43.338;25.502;2022-10-16T03:38:28;101581.09;;;3.44;100.00
2268;BME280;11052;43.338;25.502;2022-10-16T03:40:57;101589.50;;;3.37;100.00
2268;BME280;11052;43.338;25.502;2022-10-16T03:43:24;101592.84;;;3.35;100.00
2268;BME280;11052;43.338;25.502;2022-10-16T03:45:51;101589.47;;;3.36;100.00
2268;BME280;11052;43.338;25.502;2022-10-16T03:48:18;101595.38;;;3.33;100.00
2268;BME280;11052;43.338;25.502;2022-10-16T03:50:45;101591.03;;;3.29;100.00
2268;BME280;11052;43.338;25.502;2022-10-16T03:53:14;101592.75;;;3.30;100.00
2268;BME280;11052;43.338;25.502;2022-10-16T03:55:41;101591.75;;;3.22;100.00
2268;BME280;11052;43.338;25.502;2022-10-16T03:58:10;101589.28;;;3.26;100.00
2268;BME280;11052;43.338;25.502;2022-10-16T04:00:40;101585.78;;;3.23;100.00
2268;BME280;11052;43.338;25.502;2022-10-16T04:03:07;101580.47;;;3.14;100.00
2268;BME280;11052;43.338;25.502;2022-10-16T04:05:34;101587.72;;;2.94;100.00
2268;BME280;11052;43.338;25.502;2022-10-16T04:08:01;101577.56;;;2.97;100.00
2268;BME280;11052;43.338;25.502;2022-10-16T04:10:29;101575.91;;;3.01;100.00
2268;BME280;11052;43.338;25.502;2022-10-16T04:12:56;101579.50;;;3.09;100.00
2268;BME280;11052;43.338;25.502;2022-10-16T04:15:25;101577.88;;;3.12;100.00
2268;BME280;11052;43.338;25.502;2022-10-16T04:17:53;101577.06;;;3.15;100.00
2268;BME280;11052;43.338;25.502;2022-10-16T04:20:20;101580.38;;;3.09;100.00
2268;BME280;11052;43.338;25.502;2022-10-16T04:22:47;101591.53;;;3.11;100.00
2268;BME280;11052;43.338;25.502;2022-10-16T04:25:14;101585.53;;;3.11;100.00
2268;BME280;11052;43.338;25.502;2022-10-16T04:27:42;101588.72;;;3.01;100.00
2268;BME280;11052;43.338;25.502;2022-10-16T04:30:10;101596.28;;;2.94;100.00
2268;BME280;11052;43.338;25.502;2022-10-16T04:32:39;101603.06;;;2.92;100.00
2268;BME280;11052;43.338;25.502;2022-10-16T04:35:07;101597.88;;;2.89;100.00
2268;BME280;11052;43.338;25.502;2022-10-16T04:37:34;101603.94;;;2.93;100.00
2268;BME280;11052;43.338;25.502;2022-10-16T04:40:02;101609.84;;;2.90;100.00
2268;BME280;11052;43.338;25.502;2022-10-16T04:42:29;101617.75;;;3.01;100.00
2268;BME280;11052;43.338;25.502;2022-10-16T04:44:56;101621.25;;;3.05;100.00
2268;BME280;11052;43.338;25.502;2022-10-16T04:47:23;101633.25;;;3.06;100.00
2268;BME280;11052;43.338;25.502;2022-10-16T04:49:52;101625.59;;;3.07;100.00
2268;BME280;11052;43.338;25.502;2022-10-16T04:52:19;101628.91;;;3.03;100.00
2268;BME280;11052;43.338;25.502;2022-10-16T04:54:47;101627.31;;;3.08;100.00
2268;BME280;11052;43.338;25.502;2022-10-16T04:57:15;101625.75;;;3.15;100.00
2268;BME280;11052;43.338;25.502;2022-10-16T04:59:43;101627.56;;;3.19;100.00
2268;BME280;11052;43.338;25.502;2022-10-16T05:02:10;101636.00;;;3.15;100.00
2268;BME280;11052;43.338;25.502;2022-10-16T05:04:37;101630.09;;;3.19;100.00
2268;BME280;11052;43.338;25.502;2022-10-16T05:07:06;101637.19;;;3.31;100.00
2268;BME280;11052;43.338;25.502;2022-10-16T05:09:33;101644.34;;;3.45;100.00
2268;BME280;11052;43.338;25.502;2022-10-16T05:12:01;101631.91;;;3.67;100.00
2268;BME280;11052;43.338;25.502;2022-10-16T05:14:29;101640.00;;;3.86;100.00
2268;BME280;11052;43.338;25.502;2022-10-16T05:16:56;101641.38;;;4.14;100.00
2268;BME280;11052;43.338;25.502;2022-10-16T05:19:23;101643.50;;;4.40;100.00
2268;BME280;11052;43.338;25.502;2022-10-16T05:21:51;101648.25;;;4.70;100.00
2268;BME280;11052;43.338;25.502;2022-10-16T05:24:19;101643.59;;;5.02;100.00
2268;BME280;11052;43.338;25.502;2022-10-16T05:26:47;101649.25;;;5.41;100.00
2268;BME280;11052;43.338;25.502;2022-10-16T05:29:14;101657.31;;;5.69;100.00
2268;BME280;11052;43.338;25.502;2022-10-16T05:31:41;101655.88;;;5.90;100.00
2268;BME280;11052;43.338;25.502;2022-10-16T05:34:08;101662.06;;;6.11;100.00
2268;BME280;11052;43.338;25.502;2022-10-16T05:36:35;101664.91;;;6.37;100.00
2268;BME280;11052;43.338;25.502;2022-10-16T05:39:03;101659.09;;;6.61;100.00
2268;BME280;11052;43.338;25.502;2022-10-16T05:41:31;101660.13;;;6.82;100.00
2268;BME280;11052;43.338;25.502;2022-10-16T05:43:59;101659.34;;;6.96;100.00
2268;BME280;11052;43.338;25.502;2022-10-16T05:46:26;101662.97;;;7.25;100.00
2268;BME280;11052;43.338;25.502;2022-10-16T05:48:53;101673.34;;;7.40;100.00
2268;BME280;11052;43.338;25.502;2022-10-16T05:51:20;101673.47;;;7.68;100.00
2268;BME280;11052;43.338;25.502;2022-10-16T05:53:47;101678.72;;;7.98;100.00
2268;BME280;11052;43.338;25.502;2022-10-16T05:56:14;101675.31;;;8.19;100.00
2268;BME280;11052;43.338;25.502;2022-10-16T05:58:43;101678.84;;;8.39;100.00
2268;BME280;11052;43.338;25.502;2022-10-16T06:01:13;101683.16;;;8.54;100.00
2268;BME280;11052;43.338;25.502;2022-10-16T06:03:40;101690.91;;;8.63;100.00
2268;BME280;11052;43.338;25.502;2022-10-16T06:06:09;101692.59;;;8.92;100.00
2268;BME280;11052;43.338;25.502;2022-10-16T06:08:36;101690.84;;;9.18;100.00
2268;BME280;11052;43.338;25.502;2022-10-16T06:11:05;101697.72;;;9.36;100.00
2268;BME280;11052;43.338;25.502;2022-10-16T06:13:33;101693.28;;;9.65;100.00
2268;BME280;11052;43.338;25.502;2022-10-16T06:16:02;101701.72;;;10.05;100.00
2268;BME280;11052;43.338;25.502;2022-10-16T06:18:30;101692.84;;;10.46;100.00
2268;BME280;11052;43.338;25.502;2022-10-16T06:20:57;101696.22;;;10.57;100.00
2268;BME280;11052;43.338;25.502;2022-10-16T06:23:24;101696.31;;;10.43;100.00
2268;BME280;11052;43.338;25.502;2022-10-16T06:25:52;101699.00;;;10.36;100.00
2268;BME280;11052;43.338;25.502;2022-10-16T06:28:19;101698.97;;;10.37;100.00
2268;BME280;11052;43.338;25.502;2022-10-16T06:30:46;101710.78;;;10.73;100.00
2268;BME280;11052;43.338;25.502;2022-10-16T06:33:15;101713.06;;;11.10;100.00
2268;BME280;11052;43.338;25.502;2022-10-16T06:35:42;101711.97;;;11.29;100.00
2268;BME280;11052;43.338;25.502;2022-10-16T06:38:09;101720.72;;;11.22;100.00
2268;BME280;11052;43.338;25.502;2022-10-16T06:40:36;101720.50;;;11.42;100.00
2268;BME280;11052;43.338;25.502;2022-10-16T06:43:03;101724.56;;;11.66;100.00
2268;BME280;11052;43.338;25.502;2022-10-16T06:45:35;101726.03;;;11.91;100.00
2268;BME280;11052;43.338;25.502;2022-10-16T06:48:02;101724.88;;;12.12;100.00
2268;BME280;11052;43.338;25.502;2022-10-16T06:50:31;101719.47;;;12.26;100.00
2268;BME280;11052;43.338;25.502;2022-10-16T06:52:58;101720.31;;;12.28;100.00
2268;BME280;11052;43.338;25.502;2022-10-16T06:55:25;101722.19;;;12.17;100.00
2268;BME280;11052;43.338;25.502;2022-10-16T06:57:52;101720.16;;;12.38;100.00
2268;BME280;11052;43.338;25.502;2022-10-16T07:00:20;101723.47;;;12.48;100.00
2268;BME280;11052;43.338;25.502;2022-10-16T07:02:47;101719.81;;;12.61;100.00
2268;BME280;11052;43.338;25.502;2022-10-16T07:05:14;101725.66;;;12.75;100.00
2268;BME280;11052;43.338;25.502;2022-10-16T07:07:43;101732.50;;;12.81;100.00
2268;BME280;11052;43.338;25.502;2022-10-16T07:10:10;101732.72;;;13.20;100.00
2268;BME280;11052;43.338;25.502;2022-10-16T07:12:37;101736.44;;;13.53;100.00
2268;BME280;11052;43.338;25.502;2022-10-16T07:15:06;101728.28;;;13.71;100.00
2268;BME280;11052;43.338;25.502;2022-10-16T07:17:33;101737.69;;;13.78;100.00
2268;BME280;11052;43.338;25.502;2022-10-16T07:20:00;101742.63;;;13.90;100.00
2268;BME280;11052;43.338;25.502;2022-10-16T07:22:28;101739.72;;;14.04;100.00
2268;BME280;11052;43.338;25.502;2022-10-16T07:24:57;101732.81;;;14.01;100.00
2268;BME280;11052;43.338;25.502;2022-10-16T07:27:24;101738.78;;;14.08;100.00
2268;BME280;11052;43.338;25.502;2022-10-16T07:29:52;101737.59;;;14.23;100.00
2268;BME280;11052;43.338;25.502;2022-10-16T07:32:19;101734.56;;;14.42;100.00
2268;BME280;11052;43.338;25.502;2022-10-16T07:34:46;101735.34;;;14.46;100.00
2268;BME280;11052;43.338;25.502;2022-10-16T07:37:13;101734.78;;;14.70;100.00
2268;BME280;11052;43.338;25.502;2022-10-16T07:39:40;101735.97;;;14.91;100.00
2268;BME280;11052;43.338;25.502;2022-10-16T07:42:09;101730.38;;;15.06;100.00
2268;BME280;11052;43.338;25.502;2022-10-16T07:44:36;101739.72;;;15.15;100.00
2268;BME280;11052;43.338;25.502;2022-10-16T07:47:04;101732.22;;;15.35;100.00
2268;BME280;11052;43.338;25.502;2022-10-16T07:49:31;101729.97;;;15.54;100.00
2268;BME280;11052;43.338;25.502;2022-10-16T07:51:58;101732.13;;;16.00;100.00
2268;BME280;11052;43.338;25.502;2022-10-16T07:54:25;101732.50;;;16.18;100.00
2268;BME280;11052;43.338;25.502;2022-10-16T07:56:52;101738.38;;;16.52;100.00
2268;BME280;11052;43.338;25.502;2022-10-16T07:59:21;101739.66;;;16.67;100.00
2268;BME280;11052;43.338;25.502;2022-10-16T08:01:49;101731.97;;;16.89;100.00
2268;BME280;11052;43.338;25.502;2022-10-16T08:04:16;101730.97;;;16.93;100.00
2268;BME280;11052;43.338;25.502;2022-10-16T08:06:43;101738.28;;;16.55;100.00
2268;BME280;11052;43.338;25.502;2022-10-16T08:09:10;101731.22;;;16.31;100.00
2268;BME280;11052;43.338;25.502;2022-10-16T08:11:37;101729.06;;;16.16;100.00
2268;BME280;11052;43.338;25.502;2022-10-16T08:14:05;101733.22;;;16.49;100.00
2268;BME280;11052;43.338;25.502;2022-10-16T08:16:34;101734.09;;;16.50;100.00
2268;BME280;11052;43.338;25.502;2022-10-16T08:19:01;101734.13;;;16.48;100.00
2268;BME280;11052;43.338;25.502;2022-10-16T08:21:28;101724.88;;;16.66;100.00
2268;BME280;11052;43.338;25.502;2022-10-16T08:23:56;101723.06;;;16.68;100.00
2268;BME280;11052;43.338;25.502;2022-10-16T08:26:23;101729.00;;;16.99;100.00
2268;BME280;11052;43.338;25.502;2022-10-16T08:28:50;101723.97;;;16.93;100.00
2268;BME280;11052;43.338;25.502;2022-10-16T08:31:17;101725.31;;;17.05;100.00
2268;BME280;11052;43.338;25.502;2022-10-16T08:33:46;101721.72;;;17.08;100.00
2268;BME280;11052;43.338;25.502;2022-10-16T08:36:14;101724.19;;;17.12;100.00
2268;BME280;11052;43.338;25.502;2022-10-16T08:38:42;101722.44;;;17.13;100.00
2268;BME280;11052;43.338;25.502;2022-10-16T08:41:26;101719.34;;;17.50;100.00
2268;BME280;11052;43.338;25.502;2022-10-16T08:44:11;101716.16;;;17.66;100.00
2268;BME280;11052;43.338;25.502;2022-10-16T08:46:51;101724.06;;;17.88;100.00
2268;BME280;11052;43.338;25.502;2022-10-16T08:49:25;101720.72;;;17.60;95.91
2268;BME280;11052;43.338;25.502;2022-10-16T08:51:53;101734.28;;;17.73;99.72
2268;BME280;11052;43.338;25.502;2022-10-16T08:54:28;101728.47;;;17.88;94.55
2268;BME280;11052;43.338;25.502;2022-10-16T08:56:57;101726.41;;;17.96;90.95
2268;BME280;11052;43.338;25.502;2022-10-16T08:59:27;101726.91;;;18.06;91.10
2268;BME280;11052;43.338;25.502;2022-10-16T09:01:55;101736.09;;;17.94;91.23
2268;BME280;11052;43.338;25.502;2022-10-16T09:04:48;101727.25;;;17.96;86.21
2268;BME280;11052;43.338;25.502;2022-10-16T09:07:22;101724.41;;;18.02;85.01
2268;BME280;11052;43.338;25.502;2022-10-16T09:10:02;101723.72;;;17.97;85.18
2268;BME280;11052;43.338;25.502;2022-10-16T09:12:38;101724.88;;;17.90;82.95
2268;BME280;11052;43.338;25.502;2022-10-16T09:15:17;101725.94;;;18.08;86.09
2268;BME280;11052;43.338;25.502;2022-10-16T09:17:54;101727.25;;;18.20;84.16
2268;BME280;11052;43.338;25.502;2022-10-16T09:20:31;101721.47;;;18.32;80.98
2268;BME280;11052;43.338;25.502;2022-10-16T09:23:12;101721.38;;;18.35;84.34
2268;BME280;11052;43.338;25.502;2022-10-16T09:25:43;101726.06;;;18.05;80.58
2268;BME280;11052;43.338;25.502;2022-10-16T09:28:13;101723.44;;;18.27;85.41
2268;BME280;11052;43.338;25.502;2022-10-16T09:30:40;101716.28;;;18.52;81.74
2268;BME280;11052;43.338;25.502;2022-10-16T09:33:09;101722.41;;;18.53;79.46
2268;BME280;11052;43.338;25.502;2022-10-16T09:35:39;101715.97;;;18.61;81.30
2268;BME280;11052;43.338;25.502;2022-10-16T09:38:07;101714.22;;;18.82;79.20
2268;BME280;11052;43.338;25.502;2022-10-16T09:40:37;101707.38;;;18.78;77.74
2268;BME280;11052;43.338;25.502;2022-10-16T09:43:19;101701.88;;;18.84;80.67
2268;BME280;11052;43.338;25.502;2022-10-16T09:45:55;101700.22;;;18.82;78.21
2268;BME280;11052;43.338;25.502;2022-10-16T09:48:23;101703.78;;;18.59;79.17
2268;BME280;11052;43.338;25.502;2022-10-16T09:51:01;101702.38;;;18.72;76.29
2268;BME280;11052;43.338;25.502;2022-10-16T09:53:41;101698.09;;;18.70;75.07
2268;BME280;11052;43.338;25.502;2022-10-16T09:56:10;101700.47;;;18.76;75.03
2268;BME280;11052;43.338;25.502;2022-10-16T09:58:42;101703.19;;;18.94;72.69
2268;BME280;11052;43.338;25.502;2022-10-16T10:01:13;101701.22;;;18.79;71.28
2268;BME280;11052;43.338;25.502;2022-10-16T10:03:43;101702.06;;;18.80;70.75
2268;BME280;11052;43.338;25.502;2022-10-16T10:06:21;101694.66;;;18.89;73.17
2268;BME280;11052;43.338;25.502;2022-10-16T10:08:58;101695.78;;;19.04;70.86
2268;BME280;11052;43.338;25.502;2022-10-16T10:11:48;101690.72;;;18.99;71.96
2268;BME280;11052;43.338;25.502;2022-10-16T10:14:21;101692.78;;;19.12;70.73
2268;BME280;11052;43.338;25.502;2022-10-16T10:16:51;101695.47;;;19.10;69.18
2268;BME280;11052;43.338;25.502;2022-10-16T10:19:21;101691.00;;;19.12;68.20
2268;BME280;11052;43.338;25.502;2022-10-16T10:21:50;101687.72;;;19.07;69.48
2268;BME280;11052;43.338;25.502;2022-10-16T10:24:19;101692.31;;;19.22;68.16
2268;BME280;11052;43.338;25.502;2022-10-16T10:26:51;101692.31;;;19.22;66.70
2268;BME280;11052;43.338;25.502;2022-10-16T10:29:43;101680.63;;;19.29;67.48
2268;BME280;11052;43.338;25.502;2022-10-16T10:32:23;101688.94;;;19.39;65.88
2268;BME280;11052;43.338;25.502;2022-10-16T10:35:05;101680.69;;;19.28;64.78
2268;BME280;11052;43.338;25.502;2022-10-16T10:37:51;101680.06;;;19.42;65.95
2268;BME280;11052;43.338;25.502;2022-10-16T10:40:30;101675.88;;;19.38;63.17
2268;BME280;11052;43.338;25.502;2022-10-16T10:43:06;101662.44;;;19.44;63.47
2268;BME280;11052;43.338;25.502;2022-10-16T10:45:42;101666.91;;;19.42;62.71
2268;BME280;11052;43.338;25.502;2022-10-16T10:48:31;101655.66;;;19.58;61.58
2268;BME280;11052;43.338;25.502;2022-10-16T10:51:10;101668.34;;;19.49;63.19
2268;BME280;11052;43.338;25.502;2022-10-16T10:53:47;101665.06;;;19.44;62.77
2268;BME280;11052;43.338;25.502;2022-10-16T10:56:30;101664.34;;;19.40;61.63
2268;BME280;11052;43.338;25.502;2022-10-16T11:02:00;101652.06;;;19.41;62.41
2268;BME280;11052;43.338;25.502;2022-10-16T11:04:56;101646.69;;;19.23;62.32
2268;BME280;11052;43.338;25.502;2022-10-16T11:07:32;101656.88;;;19.31;62.49
2268;BME280;11052;43.338;25.502;2022-10-16T11:10:09;101638.81;;;19.23;62.04
2268;BME280;11052;43.338;25.502;2022-10-16T11:12:42;101647.03;;;19.16;59.80
2268;BME280;11052;43.338;25.502;2022-10-16T11:15:14;101645.50;;;19.30;61.79
2268;BME280;11052;43.338;25.502;2022-10-16T11:17:48;101651.44;;;19.15;62.24
2268;BME280;11052;43.338;25.502;2022-10-16T11:20:20;101639.94;;;18.99;63.34
2268;BME280;11052;43.338;25.502;2022-10-16T11:22:53;101639.78;;;19.02;63.57
2268;BME280;11052;43.338;25.502;2022-10-16T11:25:26;101638.44;;;19.12;63.33
2268;BME280;11052;43.338;25.502;2022-10-16T11:27:56;101643.81;;;19.29;61.63
2268;BME280;11052;43.338;25.502;2022-10-16T11:30:28;101633.16;;;19.32;60.12
2268;BME280;11052;43.338;25.502;2022-10-16T11:33:19;101637.81;;;19.26;60.28
2268;BME280;11052;43.338;25.502;2022-10-16T11:35:53;101637.28;;;19.38;60.79
2268;BME280;11052;43.338;25.502;2022-10-16T11:38:27;101635.16;;;19.46;61.06
2268;BME280;11052;43.338;25.502;2022-10-16T11:41:00;101634.72;;;19.37;60.97
2268;BME280;11052;43.338;25.502;2022-10-16T11:43:34;101641.41;;;19.44;61.61
2268;BME280;11052;43.338;25.502;2022-10-16T11:46:08;101638.78;;;19.44;60.65
2268;BME280;11052;43.338;25.502;2022-10-16T11:48:42;101634.50;;;19.41;61.12
2268;BME280;11052;43.338;25.502;2022-10-16T11:51:17;101640.03;;;19.55;59.01
2268;BME280;11052;43.338;25.502;2022-10-16T11:53:53;101633.69;;;19.59;60.29
2268;BME280;11052;43.338;25.502;2022-10-16T11:56:25;101634.63;;;19.58;59.12
2268;BME280;11052;43.338;25.502;2022-10-16T11:58:56;101625.44;;;19.67;59.55
2268;BME280;11052;43.338;25.502;2022-10-16T12:01:30;101619.91;;;19.73;60.98
2268;BME280;11052;43.338;25.502;2022-10-16T12:04:16;101630.84;;;19.83;60.85
2268;BME280;11052;43.338;25.502;2022-10-16T12:06:49;101633.91;;;19.55;61.09
2268;BME280;11052;43.338;25.502;2022-10-16T12:09:22;101633.22;;;19.50;60.62
2268;BME280;11052;43.338;25.502;2022-10-16T12:11:53;101635.41;;;19.60;59.83
2268;BME280;11052;43.338;25.502;2022-10-16T12:14:36;101633.44;;;19.45;58.21
2268;BME280;11052;43.338;25.502;2022-10-16T12:17:22;101633.66;;;19.41;60.31
2268;BME280;11052;43.338;25.502;2022-10-16T12:19:58;101640.19;;;19.51;59.85
2268;BME280;11052;43.338;25.502;2022-10-16T12:22:28;101646.06;;;19.57;58.87
2268;BME280;11052;43.338;25.502;2022-10-16T12:24:57;101640.28;;;19.49;57.26
2268;BME280;11052;43.338;25.502;2022-10-16T12:27:28;101644.09;;;19.42;58.42
2268;BME280;11052;43.338;25.502;2022-10-16T12:29:57;101645.34;;;19.54;58.78
2268;BME280;11052;43.338;25.502;2022-10-16T12:32:30;101644.81;;;19.46;58.49
2268;BME280;11052;43.338;25.502;2022-10-16T12:34:59;101638.72;;;19.45;59.23
2268;BME280;11052;43.338;25.502;2022-10-16T12:37:30;101639.50;;;19.47;58.73
2268;BME280;11052;43.338;25.502;2022-10-16T12:39:59;101642.31;;;19.43;57.64
2268;BME280;11052;43.338;25.502;2022-10-16T12:42:39;101646.28;;;19.32;58.19
2268;BME280;11052;43.338;25.502;2022-10-16T12:45:24;101639.13;;;19.36;57.42
2268;BME280;11052;43.338;25.502;2022-10-16T12:47:53;101641.03;;;19.32;58.06
2268;BME280;11052;43.338;25.502;2022-10-16T12:50:33;101637.22;;;19.40;58.69
2268;BME280;11052;43.338;25.502;2022-10-16T12:53:03;101641.34;;;19.45;58.11
2268;BME280;11052;43.338;25.502;2022-10-16T12:55:35;101637.47;;;19.33;57.97
2268;BME280;11052;43.338;25.502;2022-10-16T12:58:20;101640.19;;;19.32;58.77
2268;BME280;11052;43.338;25.502;2022-10-16T13:00:56;101634.06;;;19.31;58.59
2268;BME280;11052;43.338;25.502;2022-10-16T13:03:44;101643.56;;;19.15;57.88
2268;BME280;11052;43.338;25.502;2022-10-16T13:06:23;101640.00;;;19.16;57.25
2268;BME280;11052;43.338;25.502;2022-10-16T13:09:15;101651.03;;;19.24;56.89